Time;durP1;ratioP1;P1;durP2;ratioP2;P2;SDS_P1;SDS_P2;PMS_P1;PMS_P2;Temp;Humidity;BMP_temperature;BMP_pressure;BME280_temperature;BME280_humidity;BME280_pressure;Samples;Min_cycle;Max_cycle;Signal;HPM_P1;HPM_P2
2021/05/28 00:01:20;;;;;;;18.55;13.43;;;19.30;95.60;;;;;;5109415;28;20020;-70
2021/05/28 00:03:46;;;;;;;20.55;13.00;;;19.30;95.60;;;;;;5096687;28;20054;-71
2021/05/28 00:06:12;;;;;;;22.92;13.65;;;19.30;95.50;;;;;;5108679;28;20023;-70
2021/05/28 00:08:38;;;;;;;19.45;14.13;;;19.30;95.50;;;;;;5107528;28;20027;-72
2021/05/28 00:11:04;;;;;;;17.35;13.88;;;19.30;95.50;;;;;;5099455;28;20069;-70
2021/05/28 00:13:30;;;;;;;17.58;13.70;;;19.20;95.60;;;;;;5103404;28;20092;-70
2021/05/28 00:15:56;;;;;;;17.83;13.75;;;19.20;95.60;;;;;;5095340;28;20055;-71
2021/05/28 00:18:22;;;;;;;20.65;14.27;;;19.20;95.60;;;;;;5102766;28;20059;-70
2021/05/28 00:20:48;;;;;;;21.70;15.32;;;19.10;95.50;;;;;;5095850;28;20391;-70
2021/05/28 00:23:14;;;;;;;20.45;14.10;;;19.00;95.50;;;;;;5099949;28;20023;-70
2021/05/28 00:25:39;;;;;;;19.48;15.45;;;19.00;95.60;;;;;;5097472;28;20070;-70
2021/05/28 00:28:05;;;;;;;19.08;13.52;;;18.90;95.70;;;;;;5093555;28;20031;-70
2021/05/28 00:30:31;;;;;;;24.48;14.20;;;18.90;95.90;;;;;;5091860;28;20054;-71
2021/05/28 00:32:56;;;;;;;23.60;14.55;;;18.90;95.90;;;;;;5085965;28;20056;-71
2021/05/28 00:35:22;;;;;;;21.20;14.93;;;18.90;96.10;;;;;;5093576;28;20447;-70
2021/05/28 00:37:48;;;;;;;16.25;12.88;;;18.80;96.30;;;;;;5082058;28;20028;-70
2021/05/28 00:40:17;;;;;;;20.80;13.13;;;18.90;96.50;;;;;;5099954;28;20028;-70
2021/05/28 00:42:43;;;;;;;18.35;14.20;;;18.90;96.50;;;;;;5110058;28;20120;-71
2021/05/28 00:45:09;;;;;;;19.02;14.05;;;18.90;96.60;;;;;;5106869;28;20051;-71
2021/05/28 00:47:36;;;;;;;21.05;14.02;;;18.90;96.70;;;;;;5108802;28;20019;-71
2021/05/28 00:50:03;;;;;;;19.58;14.07;;;18.90;96.90;;;;;;5102919;28;20056;-70
2021/05/28 00:52:29;;;;;;;18.90;14.18;;;18.90;97.00;;;;;;5110509;28;20082;-72
2021/05/28 00:54:55;;;;;;;19.20;14.10;;;19.00;97.00;;;;;;5105047;28;20051;-71
2021/05/28 00:57:23;;;;;;;18.90;14.45;;;19.00;97.20;;;;;;5106698;28;20023;-70
2021/05/28 00:59:51;;;;;;;20.00;12.43;;;19.00;97.20;;;;;;5103755;28;20093;-71
2021/05/28 01:02:17;;;;;;;19.60;13.88;;;19.00;97.20;;;;;;5101134;28;20019;-70
2021/05/28 01:04:42;;;;;;;18.40;13.80;;;19.00;97.10;;;;;;5095592;28;20500;-70
2021/05/28 01:07:08;;;;;;;21.58;13.88;;;19.00;97.10;;;;;;5094702;28;20033;-70
2021/05/28 01:09:34;;;;;;;17.98;13.32;;;19.00;97.10;;;;;;5101484;28;20039;-70
2021/05/28 01:12:00;;;;;;;18.20;14.23;;;18.90;97.20;;;;;;5089038;28;20581;-70
2021/05/28 01:14:25;;;;;;;18.17;13.27;;;18.90;97.40;;;;;;5122907;27;20060;-73
2021/05/28 01:16:51;;;;;;;19.65;15.35;;;18.90;97.50;;;;;;5088563;28;20094;-71
2021/05/28 01:19:17;;;;;;;24.08;15.93;;;18.90;97.40;;;;;;5092784;28;20040;-71
2021/05/28 01:21:43;;;;;;;20.42;14.75;;;18.80;97.20;;;;;;5084284;28;20475;-70
2021/05/28 01:24:09;;;;;;;20.88;13.63;;;18.70;97.40;;;;;;5092024;28;20028;-70
2021/05/28 01:26:35;;;;;;;18.55;14.05;;;18.70;98.10;;;;;;5092104;28;20042;-71
2021/05/28 01:29:01;;;;;;;17.27;13.93;;;18.70;98.20;;;;;;5083786;28;20024;-70
2021/05/28 01:31:27;;;;;;;16.05;13.00;;;18.70;98.40;;;;;;5086508;28;20136;-71
2021/05/28 01:33:52;;;;;;;18.42;14.27;;;18.70;98.60;;;;;;5081587;28;20115;-70
2021/05/28 01:36:18;;;;;;;19.13;14.10;;;18.80;98.50;;;;;;5089024;28;20481;-71
2021/05/28 01:38:44;;;;;;;34.15;24.60;;;18.80;98.40;;;;;;5089641;28;20799;-71
2021/05/28 01:41:10;;;;;;;22.90;17.42;;;18.80;98.50;;;;;;5108718;28;20027;-71
2021/05/28 01:43:36;;;;;;;20.85;15.25;;;18.80;98.40;;;;;;5111663;28;20417;-70
2021/05/28 01:46:02;;;;;;;32.00;22.42;;;18.80;98.30;;;;;;5112449;28;20121;-71
2021/05/28 01:48:27;;;;;;;51.47;36.28;;;18.80;98.40;;;;;;5106881;27;20056;-72
2021/05/28 01:50:53;;;;;;;45.33;33.17;;;18.80;98.50;;;;;;5112723;28;20469;-70
2021/05/28 01:53:22;;;;;;;28.55;21.75;;;18.90;98.60;;;;;;5103181;28;20103;-70
2021/05/28 01:55:49;;;;;;;38.22;27.38;;;18.90;98.90;;;;;;5090729;28;20077;-71
2021/05/28 01:58:18;;;;;;;39.17;28.40;;;18.90;98.60;;;;;;5102078;28;20480;-71
2021/05/28 02:00:46;;;;;;;28.50;21.70;;;18.90;98.60;;;;;;5100409;28;20384;-71
2021/05/28 02:03:12;;;;;;;27.10;21.45;;;18.90;98.50;;;;;;5092836;28;20059;-71
2021/05/28 02:05:38;;;;;;;33.13;24.15;;;18.80;98.70;;;;;;5098274;28;20078;-70
2021/05/28 02:08:04;;;;;;;33.50;24.08;;;18.90;99.10;;;;;;5101228;28;20059;-70
2021/05/28 02:10:31;;;;;;;35.95;26.13;;;18.90;99.00;;;;;;5090214;28;20020;-71
2021/05/28 02:12:58;;;;;;;43.33;32.75;;;18.90;99.20;;;;;;5099481;28;20039;-71
2021/05/28 02:15:24;;;;;;;57.42;39.90;;;19.00;99.20;;;;;;5087634;28;20028;-70
2021/05/28 02:17:51;;;;;;;45.58;31.90;;;19.00;99.20;;;;;;5097978;28;20024;-70
2021/05/28 02:20:17;;;;;;;47.47;31.85;;;19.00;99.20;;;;;;5086711;28;20056;-70
2021/05/28 02:22:43;;;;;;;48.95;31.70;;;19.00;99.30;;;;;;5090677;28;20027;-70
2021/05/28 02:25:09;;;;;;;42.83;31.67;;;19.00;99.30;;;;;;5085200;28;20463;-73
2021/05/28 02:27:35;;;;;;;32.58;22.98;;;19.00;99.20;;;;;;5084829;28;20036;-71
2021/05/28 02:30:02;;;;;;;31.70;24.17;;;19.10;99.00;;;;;;5094239;28;20035;-70
2021/05/28 02:32:28;;;;;;;22.50;19.52;;;19.10;98.90;;;;;;5090493;28;20034;-72
2021/05/28 02:34:54;;;;;;;29.30;21.52;;;19.10;99.10;;;;;;5086713;28;20020;-70
2021/05/28 02:37:20;;;;;;;29.55;22.40;;;19.10;99.00;;;;;;5086378;28;20075;-73
2021/05/28 02:39:46;;;;;;;29.23;20.67;;;19.10;98.90;;;;;;5083149;28;20034;-71
2021/05/28 02:42:11;;;;;;;29.10;21.50;;;19.10;99.10;;;;;;5107664;28;20024;-70
2021/05/28 02:44:38;;;;;;;35.20;18.15;;;19.20;99.00;;;;;;5104200;28;20051;-71
2021/05/28 02:47:04;;;;;;;27.52;18.50;;;19.20;98.90;;;;;;5109416;28;20030;-70
2021/05/28 02:49:30;;;;;;;29.67;16.38;;;19.20;99.00;;;;;;5110367;27;20028;-71
2021/05/28 02:51:55;;;;;;;28.88;17.77;;;19.30;99.20;;;;;;5104365;28;20055;-71
2021/05/28 02:54:22;;;;;;;34.47;17.60;;;19.40;99.60;;;;;;5107355;28;20023;-72
2021/05/28 02:56:48;;;;;;;19.90;14.27;;;19.50;99.90;;;;;;5102865;28;20024;-72
2021/05/28 02:59:13;;;;;;;16.27;13.95;;;19.70;99.90;;;;;;5107014;28;20102;-71
2021/05/28 03:01:39;;;;;;;19.45;15.80;;;19.80;99.90;;;;;;5096348;28;20027;-70
2021/05/28 03:04:05;;;;;;;18.42;14.10;;;20.00;99.90;;;;;;5093330;28;20024;-71
2021/05/28 03:06:31;;;;;;;18.23;14.05;;;20.20;99.80;;;;;;5101041;28;20405;-72
2021/05/28 03:08:58;;;;;;;17.15;13.88;;;20.40;99.60;;;;;;5094654;28;20055;-70
2021/05/28 03:11:23;;;;;;;17.10;13.52;;;20.50;99.10;;;;;;5099428;28;20077;-71
2021/05/28 03:13:49;;;;;;;15.98;12.60;;;20.80;98.60;;;;;;5093105;28;20438;-71
2021/05/28 03:16:15;;;;;;;14.15;12.05;;;21.00;98.20;;;;;;5100361;28;20398;-70
2021/05/28 03:18:50;;;;;;;19.27;14.43;;;21.20;97.80;;;;;;5084927;28;20093;-71
2021/05/28 03:23:59;;;;;;;15.10;12.85;;;21.40;95.70;;;;;;5078645;28;20112;-73
2021/05/28 03:26:26;;;;;;;15.80;13.07;;;21.40;94.80;;;;;;5082912;28;20058;-74
2021/05/28 03:28:53;;;;;;;14.60;13.07;;;21.30;94.90;;;;;;5088276;28;20136;-71
2021/05/28 03:31:20;;;;;;;15.00;13.07;;;21.30;94.40;;;;;;5088277;28;20024;-71
2021/05/28 03:33:46;;;;;;;17.63;12.43;;;21.40;94.70;;;;;;5078452;28;20051;-70
2021/05/28 03:36:15;;;;;;;12.43;11.13;;;21.50;94.90;;;;;;5083333;28;20040;-70
2021/05/28 03:38:41;;;;;;;15.32;11.70;;;21.80;94.60;;;;;;5076149;28;20082;-71
2021/05/28 03:41:07;;;;;;;12.55;10.30;;;22.00;94.00;;;;;;5096717;28;20036;-70
2021/05/28 03:43:35;;;;;;;15.07;11.57;;;22.20;93.10;;;;;;5102383;28;20467;-70
2021/05/28 03:46:01;;;;;;;18.80;12.70;;;22.30;92.10;;;;;;5106896;28;20016;-70
2021/05/28 03:48:27;;;;;;;22.20;15.35;;;22.30;91.30;;;;;;5097471;28;20402;-71
2021/05/28 03:50:54;;;;;;;18.42;14.05;;;22.20;90.80;;;;;;5103660;28;20023;-72
2021/05/28 03:53:20;;;;;;;15.95;12.60;;;22.10;90.70;;;;;;5093048;28;20025;-71
2021/05/28 03:55:46;;;;;;;17.13;13.55;;;22.00;90.50;;;;;;5093009;28;20020;-71
2021/05/28 03:58:11;;;;;;;15.57;13.32;;;21.90;90.70;;;;;;5091933;28;20020;-71
2021/05/28 04:00:37;;;;;;;15.65;12.25;;;21.90;90.70;;;;;;5094824;28;20476;-71
2021/05/28 04:03:03;;;;;;;15.52;12.02;;;21.80;90.50;;;;;;5090654;28;20017;-71
2021/05/28 04:05:29;;;;;;;16.00;12.48;;;21.70;90.40;;;;;;5087788;28;20028;-70
2021/05/28 04:07:55;;;;;;;17.73;13.70;;;21.80;90.50;;;;;;5091179;28;20020;-70
2021/05/28 04:10:20;;;;;;;13.10;11.48;;;21.70;90.70;;;;;;5082303;28;20035;-71
2021/05/28 04:12:46;;;;;;;14.15;11.45;;;21.70;90.80;;;;;;5100157;28;20027;-70
2021/05/28 04:15:12;;;;;;;18.52;13.88;;;21.80;90.60;;;;;;5081696;28;20070;-71
2021/05/28 04:17:38;;;;;;;16.17;12.52;;;21.80;90.50;;;;;;5087622;28;20085;-70
2021/05/28 04:20:05;;;;;;;14.02;11.82;;;21.80;90.20;;;;;;5090736;28;20482;-71
2021/05/28 04:22:31;;;;;;;19.50;12.70;;;21.70;90.10;;;;;;5084321;28;20024;-72
2021/05/28 04:24:57;;;;;;;16.58;12.23;;;21.70;90.30;;;;;;5086949;28;20402;-70
2021/05/28 04:27:22;;;;;;;15.43;12.07;;;21.70;90.20;;;;;;5088083;28;20028;-70
2021/05/28 04:29:48;;;;;;;16.88;12.48;;;21.70;90.10;;;;;;5084834;28;20119;-70
2021/05/28 04:32:14;;;;;;;16.02;13.15;;;21.70;90.00;;;;;;5078812;28;20037;-70
2021/05/28 04:34:40;;;;;;;16.05;13.63;;;21.70;89.40;;;;;;5083154;28;20413;-73
2021/05/28 04:37:07;;;;;;;22.98;13.75;;;21.70;89.70;;;;;;5078918;28;20036;-73
2021/05/28 04:39:32;;;;;;;18.65;13.55;;;21.70;90.00;;;;;;5079890;28;20025;-70
2021/05/28 04:41:58;;;;;;;15.73;12.50;;;21.80;90.30;;;;;;5084708;28;20076;-74
2021/05/28 04:44:24;;;;;;;16.50;11.93;;;22.20;91.20;;;;;;5077970;28;20730;-73
2021/05/28 04:46:50;;;;;;;12.48;11.18;;;23.00;91.00;;;;;;5078780;28;20044;-71
2021/05/28 04:49:15;;;;;;;14.60;10.93;;;23.70;89.20;;;;;;5081393;28;20044;-71
2021/05/28 04:51:41;;;;;;;13.48;11.02;;;24.40;86.30;;;;;;5081861;28;20036;-73
2021/05/28 04:54:07;;;;;;;13.45;10.52;;;25.10;81.80;;;;;;5086007;28;20024;-71
2021/05/28 04:56:33;;;;;;;13.73;10.75;;;25.60;78.50;;;;;;5079810;28;20024;-71
2021/05/28 04:58:59;;;;;;;11.60;10.40;;;26.10;76.30;;;;;;5089078;28;20044;-71
2021/05/28 05:01:25;;;;;;;11.90;9.13;;;26.50;74.00;;;;;;5099705;28;20548;-71
2021/05/28 05:03:52;;;;;;;10.65;9.05;;;27.00;72.30;;;;;;5096685;28;20036;-71
2021/05/28 05:06:17;;;;;;;10.05;7.82;;;27.40;70.30;;;;;;5097075;28;20369;-71
2021/05/28 05:08:43;;;;;;;10.13;7.43;;;27.80;68.30;;;;;;5095342;28;20016;-74
2021/05/28 05:11:10;;;;;;;9.52;7.72;;;27.90;67.00;;;;;;5096012;28;20040;-72
2021/05/28 05:13:35;;;;;;;10.60;7.13;;;28.20;66.20;;;;;;5093169;28;20504;-71
2021/05/28 05:16:01;;;;;;;10.70;6.53;;;28.30;64.60;;;;;;5094974;28;20047;-70
2021/05/28 05:18:27;;;;;;;8.48;6.22;;;28.50;63.80;;;;;;5095364;28;20020;-70
2021/05/28 05:20:52;;;;;;;9.13;6.32;;;28.50;62.60;;;;;;5098555;28;20062;-66
2021/05/28 05:23:18;;;;;;;9.32;5.75;;;28.50;62.00;;;;;;5081647;28;20032;-72
2021/05/28 05:25:44;;;;;;;9.20;6.13;;;28.60;61.30;;;;;;5083904;28;20024;-71
2021/05/28 05:28:11;;;;;;;8.73;5.80;;;28.90;61.30;;;;;;5114202;28;20031;-70
2021/05/28 05:30:37;;;;;;;10.18;6.45;;;29.10;61.00;;;;;;5110794;28;20032;-76
2021/05/28 05:33:02;;;;;;;12.02;6.40;;;29.40;60.70;;;;;;5097515;28;20031;-76
2021/05/28 05:35:28;;;;;;;9.20;6.25;;;29.50;60.00;;;;;;5092761;28;20047;-74
2021/05/28 05:37:54;;;;;;;11.35;6.60;;;29.20;59.10;;;;;;5098728;28;20032;-74
2021/05/28 05:40:20;;;;;;;10.75;6.10;;;28.60;59.30;;;;;;5109085;28;20024;-74
2021/05/28 05:42:46;;;;;;;7.63;6.03;;;28.10;60.30;;;;;;5113921;28;20024;-75
2021/05/28 05:45:13;;;;;;;8.45;5.85;;;28.00;61.50;;;;;;5102852;28;20042;-74
2021/05/28 05:47:41;;;;;;;9.85;5.97;;;28.20;61.40;;;;;;5074129;28;20021;-75
2021/05/28 05:50:08;;;;;;;9.73;6.30;;;28.60;60.90;;;;;;5095351;28;20035;-75
2021/05/28 05:52:34;;;;;;;9.75;6.15;;;28.80;60.20;;;;;;5100228;28;20085;-75
2021/05/28 05:55:00;;;;;;;8.63;6.07;;;29.00;60.60;;;;;;5093930;28;20020;-74
2021/05/28 05:57:28;;;;;;;8.30;6.70;;;29.30;59.90;;;;;;5097043;28;20016;-75
2021/05/28 05:59:54;;;;;;;13.57;6.47;;;29.60;60.20;;;;;;5084669;28;20036;-70
2021/05/28 06:02:20;;;;;;;8.80;7.15;;;29.70;59.40;;;;;;5086655;28;20458;-74
2021/05/28 06:04:45;;;;;;;10.35;6.57;;;29.40;58.60;;;;;;5111490;28;20020;-75
2021/05/28 06:07:11;;;;;;;10.20;6.43;;;29.30;58.80;;;;;;5107115;28;20016;-74
2021/05/28 06:09:37;;;;;;;7.85;5.93;;;29.00;58.60;;;;;;5109071;28;20410;-75
2021/05/28 06:12:03;;;;;;;8.40;5.18;;;28.70;58.20;;;;;;5106561;28;20027;-77
2021/05/28 06:14:29;;;;;;;6.72;4.70;;;28.50;57.90;;;;;;5086040;28;20028;-75
2021/05/28 06:16:54;;;;;;;9.05;5.20;;;28.30;58.30;;;;;;5108800;28;20040;-75
2021/05/28 06:19:20;;;;;;;9.02;4.97;;;28.30;59.10;;;;;;5087445;28;20078;-74
2021/05/28 06:21:46;;;;;;;7.38;4.45;;;28.30;58.80;;;;;;5097300;28;20461;-74
2021/05/28 06:24:12;;;;;;;8.00;5.15;;;28.70;59.60;;;;;;5107241;28;20076;-74
2021/05/28 06:26:38;;;;;;;8.77;5.55;;;29.30;59.60;;;;;;5110925;28;20461;-74
2021/05/28 06:29:06;;;;;;;9.32;6.00;;;29.90;58.90;;;;;;5107594;28;20081;-77
2021/05/28 06:31:32;;;;;;;12.52;6.07;;;30.70;58.60;;;;;;5088946;28;20051;-75
2021/05/28 06:33:58;;;;;;;10.57;6.18;;;31.40;57.20;;;;;;5107824;28;20435;-75
2021/05/28 06:36:24;;;;;;;8.95;5.85;;;31.90;55.90;;;;;;5104051;28;20028;-75
2021/05/28 06:38:50;;;;;;;7.13;5.20;;;32.00;54.50;;;;;;5103070;28;20034;-75
2021/05/28 06:41:15;;;;;;;8.95;5.20;;;32.00;54.60;;;;;;5110700;28;20393;-75
2021/05/28 06:43:41;;;;;;;7.80;5.05;;;31.70;53.10;;;;;;5112527;28;20415;-75
2021/05/28 06:46:07;;;;;;;8.52;5.45;;;31.40;54.10;;;;;;5114061;28;20016;-75
2021/05/28 06:48:33;;;;;;;6.93;5.00;;;31.40;54.40;;;;;;5112083;28;20469;-75
2021/05/28 06:50:58;;;;;;;7.10;4.95;;;31.30;53.70;;;;;;5114145;28;20032;-75
2021/05/28 06:53:24;;;;;;;7.68;4.65;;;31.50;53.50;;;;;;5114114;28;20478;-76
2021/05/28 06:55:50;;;;;;;8.60;4.50;;;31.80;53.60;;;;;;5112754;28;20030;-75
2021/05/28 06:58:17;;;;;;;6.30;4.53;;;32.20;53.50;;;;;;5112079;28;20035;-75
2021/05/28 07:00:42;;;;;;;6.53;4.60;;;32.70;52.30;;;;;;5113123;28;20019;-76
2021/05/28 07:03:08;;;;;;;11.00;3.90;;;32.90;50.70;;;;;;5112980;28;20031;-74
2021/05/28 07:05:34;;;;;;;7.60;3.83;;;33.10;50.30;;;;;;5111990;28;20028;-73
2021/05/28 07:08:00;;;;;;;9.55;4.20;;;33.20;49.80;;;;;;5112037;28;20085;-74
2021/05/28 07:10:26;;;;;;;5.75;3.40;;;33.20;49.40;;;;;;5112362;28;20023;-76
2021/05/28 07:12:52;;;;;;;6.32;3.70;;;33.00;48.50;;;;;;5113851;28;20438;-74
2021/05/28 07:15:18;;;;;;;8.02;4.22;;;32.80;48.50;;;;;;5112569;28;20023;-74
2021/05/28 07:17:45;;;;;;;7.45;3.70;;;32.60;48.00;;;;;;5113184;28;20039;-74
2021/05/28 07:20:11;;;;;;;7.20;4.00;;;32.60;47.90;;;;;;5112882;28;20549;-74
2021/05/28 07:22:37;;;;;;;6.50;3.92;;;32.90;47.70;;;;;;5112432;28;20050;-74
2021/05/28 07:25:04;;;;;;;7.50;4.35;;;32.90;47.80;;;;;;5112358;28;20051;-74
2021/05/28 07:27:30;;;;;;;8.13;4.28;;;33.10;47.50;;;;;;5112946;28;20031;-74
2021/05/28 07:29:56;;;;;;;7.78;4.40;;;33.30;47.40;;;;;;5112200;28;20031;-74
2021/05/28 07:32:31;;;;;;;10.98;4.10;;;33.40;47.50;;;;;;5113928;28;20359;-74
2021/05/28 07:34:57;;;;;;;6.90;4.00;;;33.60;47.60;;;;;;5111838;28;20024;-74
2021/05/28 07:37:25;;;;;;;6.20;4.40;;;33.90;47.40;;;;;;5112793;28;20040;-74
2021/05/28 07:39:51;;;;;;;6.22;4.53;;;34.00;47.90;;;;;;5112450;28;20023;-75
2021/05/28 07:42:17;;;;;;;5.18;3.25;;;34.20;48.00;;;;;;5113127;28;20354;-75
2021/05/28 07:44:43;;;;;;;7.38;3.80;;;34.40;46.20;;;;;;5112905;28;20031;-75
2021/05/28 07:47:10;;;;;;;8.77;3.88;;;34.40;45.40;;;;;;5111355;28;20068;-74
2021/05/28 07:49:38;;;;;;;10.18;3.50;;;34.60;44.50;;;;;;5113421;28;20059;-75
2021/05/28 07:52:04;;;;;;;10.90;3.47;;;34.70;43.80;;;;;;5111485;28;20027;-74
2021/05/28 07:54:30;;;;;;;9.52;3.13;;;34.70;42.80;;;;;;5111223;28;20474;-75
2021/05/28 07:56:55;;;;;;;7.60;3.60;;;35.00;42.70;;;;;;5112589;28;20028;-75
2021/05/28 07:59:21;;;;;;;4.60;2.67;;;35.00;42.50;;;;;;5111949;28;20114;-74
2021/05/28 08:01:47;;;;;;;6.63;3.13;;;34.90;41.20;;;;;;5113013;28;20072;-75
2021/05/28 08:04:12;;;;;;;4.55;3.22;;;34.90;40.50;;;;;;5112673;28;20103;-74
2021/05/28 08:06:38;;;;;;;4.05;2.33;;;34.90;40.90;;;;;;5112785;28;20069;-75
2021/05/28 08:09:05;;;;;;;4.43;2.40;;;35.00;39.30;;;;;;5110980;28;20393;-74
2021/05/28 08:11:30;;;;;;;4.05;1.92;;;35.20;38.50;;;;;;5111175;28;20106;-75
2021/05/28 08:13:56;;;;;;;3.13;2.25;;;35.30;38.10;;;;;;5112703;28;20107;-75
2021/05/28 08:16:22;;;;;;;9.20;2.92;;;35.40;37.80;;;;;;5113043;28;20461;-74
2021/05/28 08:18:47;;;;;;;5.18;2.30;;;35.50;38.80;;;;;;5112449;28;20105;-75
2021/05/28 08:21:13;;;;;;;4.50;2.50;;;35.50;39.20;;;;;;5112802;28;20071;-75
2021/05/28 08:23:39;;;;;;;6.63;2.50;;;35.60;39.10;;;;;;5111459;28;20030;-75
2021/05/28 08:26:05;;;;;;;4.20;2.00;;;35.60;39.50;;;;;;5112412;28;20027;-75
2021/05/28 08:28:32;;;;;;;3.28;2.28;;;35.60;39.40;;;;;;5112276;28;20028;-75
2021/05/28 08:30:58;;;;;;;2.53;2.10;;;35.50;38.20;;;;;;5112081;28;20093;-75
2021/05/28 08:33:24;;;;;;;5.50;2.17;;;35.30;38.80;;;;;;5113039;28;20422;-75
2021/05/28 08:35:50;;;;;;;3.03;2.38;;;35.30;38.40;;;;;;5112832;28;20103;-75
2021/05/28 08:38:16;;;;;;;4.80;2.53;;;35.40;38.10;;;;;;5112596;28;20030;-75
2021/05/28 08:40:41;;;;;;;4.38;2.40;;;35.60;38.30;;;;;;5110036;28;20482;-76
2021/05/28 08:43:07;;;;;;;3.67;2.25;;;35.70;38.40;;;;;;5113007;28;20114;-75
2021/05/28 08:45:39;;;;;;;3.15;2.15;;;35.80;37.80;;;;;;5111947;28;20020;-75
2021/05/28 08:48:07;;;;;;;3.67;2.30;;;35.80;38.00;;;;;;5112832;28;20023;-75
2021/05/28 08:50:33;;;;;;;5.45;2.35;;;35.80;37.50;;;;;;5111616;28;20024;-75
2021/05/28 08:53:01;;;;;;;5.38;2.70;;;35.90;38.90;;;;;;5112590;28;20030;-75
2021/05/28 08:55:27;;;;;;;4.47;2.60;;;35.80;38.20;;;;;;5111974;28;20051;-75
2021/05/28 08:57:53;;;;;;;5.07;3.20;;;35.70;38.10;;;;;;5112036;28;20462;-74
2021/05/28 09:00:19;;;;;;;6.45;2.40;;;35.60;38.90;;;;;;5111984;28;20554;-75
2021/05/28 09:02:45;;;;;;;7.95;2.80;;;35.60;38.90;;;;;;5112108;28;20027;-75
2021/05/28 09:05:12;;;;;;;5.68;2.65;;;35.80;40.10;;;;;;5112423;28;20028;-75
2021/05/28 09:07:40;;;;;;;6.15;3.10;;;35.90;39.70;;;;;;5110403;28;20020;-74
2021/05/28 09:10:25;;;;;;;6.55;2.78;;;35.90;40.50;;;;;;5111253;28;20042;-75
2021/05/28 09:12:51;;;;;;;4.43;2.80;;;35.90;40.90;;;;;;5089213;28;20062;-75
2021/05/28 09:15:18;;;;;;;5.03;2.85;;;35.90;40.50;;;;;;5116297;28;20465;-75
2021/05/28 09:17:57;;;;;;;4.80;2.90;;;36.00;40.10;;;;;;5116056;28;20099;-75
2021/05/28 09:20:26;;;;;;;3.60;2.40;;;36.00;40.70;;;;;;5114649;28;20068;-75
2021/05/28 09:23:08;;;;;;;3.95;2.70;;;36.00;41.00;;;;;;5115625;28;20020;-75
2021/05/28 09:25:55;;;;;;;4.68;2.80;;;35.90;40.40;;;;;;5115611;28;20024;-75
2021/05/28 09:28:22;;;;;;;8.27;3.30;;;35.90;41.10;;;;;;5091767;28;20488;-75
2021/05/28 09:30:59;;;;;;;6.68;3.70;;;36.10;42.10;;;;;;5114772;28;20059;-75
2021/05/28 09:33:26;;;;;;;7.20;3.50;;;36.20;41.10;;;;;;5115073;28;20035;-75
2021/05/28 09:35:52;;;;;;;7.15;3.72;;;36.30;41.00;;;;;;5116048;28;20027;-74
2021/05/28 09:38:24;;;;;;;14.25;4.30;;;36.30;40.30;;;;;;5087078;28;20024;-74
2021/05/28 09:40:50;;;;;;;7.95;4.55;;;36.10;40.90;;;;;;5114105;28;20024;-75
2021/05/28 09:43:26;;;;;;;4.85;3.10;;;36.10;41.40;;;;;;5115199;28;20028;-75
2021/05/28 09:45:52;;;;;;;5.20;3.25;;;36.20;40.40;;;;;;5113826;28;20511;-75
2021/05/28 09:48:31;;;;;;;5.28;3.00;;;36.40;40.80;;;;;;5115114;28;20028;-75
2021/05/28 09:51:05;;;;;;;7.10;2.65;;;36.50;40.70;;;;;;5115714;27;20027;-75
2021/05/28 09:53:32;;;;;;;;;;;36.70;39.60;;;;;;5115304;28;20031;-76
2021/05/28 09:56:00;;;;;;;6.38;2.75;;;36.90;40.30;;;;;;5116088;28;19998;-75
2021/05/28 09:58:46;;;;;;;5.40;2.92;;;37.00;39.70;;;;;;5115456;28;20047;-78
2021/05/28 10:01:11;;;;;;;6.65;3.33;;;37.20;39.70;;;;;;5115498;28;20039;-75
2021/05/28 10:03:38;;;;;;;5.80;2.90;;;37.20;39.00;;;;;;5114917;28;20019;-75
2021/05/28 10:06:04;;;;;;;5.60;2.95;;;37.10;38.80;;;;;;5114762;28;20020;-76
2021/05/28 10:08:30;;;;;;;7.68;3.35;;;37.10;38.80;;;;;;5114767;28;20023;-75
2021/05/28 10:10:57;;;;;;;9.02;3.30;;;36.70;38.70;;;;;;5114957;28;20035;-75
2021/05/28 10:13:25;;;;;;;7.07;3.40;;;36.30;40.80;;;;;;5114046;28;20032;-75
2021/05/28 10:15:53;;;;;;;8.48;3.45;;;36.00;41.10;;;;;;5114779;28;20438;-75
2021/05/28 10:18:20;;;;;;;7.50;2.80;;;35.70;40.80;;;;;;5114395;28;20023;-75
2021/05/28 10:20:48;;;;;;;6.70;3.22;;;35.70;39.10;;;;;;5113164;28;20077;-75
2021/05/28 10:23:15;;;;;;;9.00;3.33;;;35.80;38.60;;;;;;5113303;28;20023;-75
2021/05/28 10:25:42;;;;;;;6.88;2.63;;;35.90;38.50;;;;;;5114092;28;20026;-75
2021/05/28 10:28:19;;;;;;;4.95;2.65;;;35.90;37.80;;;;;;5114648;28;20421;-75
2021/05/28 10:30:46;;;;;;;4.35;2.65;;;36.00;37.20;;;;;;5112824;28;20035;-75
2021/05/28 10:33:25;;;;;;;8.77;2.90;;;36.00;36.40;;;;;;5086158;28;20059;-75
2021/05/28 10:35:54;;;;;;;4.60;2.80;;;36.20;36.00;;;;;;5113365;28;20114;-74
2021/05/28 10:38:29;;;;;;;10.10;3.80;;;36.40;36.50;;;;;;5086793;28;20030;-75
2021/05/28 10:41:08;;;;;;;10.18;2.85;;;36.40;36.10;;;;;;5112974;28;20396;-75
2021/05/28 10:43:36;;;;;;;7.53;3.28;;;36.30;35.30;;;;;;5112466;28;20029;-75
2021/05/28 10:46:11;;;;;;;8.05;2.90;;;36.20;35.00;;;;;;5114855;28;20015;-75
2021/05/28 10:48:40;;;;;;;4.43;3.00;;;35.50;35.20;;;;;;5114130;27;20043;-75
2021/05/28 10:51:16;;;;;;;7.53;2.97;;;34.90;35.70;;;;;;5114237;28;20027;-75
2021/05/28 10:54:02;;;;;;;7.72;4.00;;;34.20;37.60;;;;;;5112788;28;20393;-75
2021/05/28 10:56:48;;;;;;;5.95;3.80;;;33.50;38.00;;;;;;5112664;28;20026;-75
2021/05/28 10:59:15;;;;;;;7.18;4.50;;;32.90;38.60;;;;;;5114003;28;20065;-74
2021/05/28 11:01:56;;;;;;;6.50;3.80;;;32.60;40.00;;;;;;5113977;28;20051;-74
2021/05/28 11:04:29;;;;;;;11.27;9.27;;;32.20;39.50;;;;;;5113876;28;20016;-74
2021/05/28 11:06:54;;;;;;;9.68;5.97;;;31.80;39.20;;;;;;5114271;28;20080;-74
2021/05/28 11:09:40;;;;;;;8.73;4.75;;;31.40;39.60;;;;;;5113345;28;20024;-74
2021/05/28 11:12:07;;;;;;;4.78;3.33;;;30.80;40.10;;;;;;5111512;28;20028;-74
2021/05/28 11:14:36;;;;;;;6.50;3.30;;;30.30;40.20;;;;;;5112071;28;20031;-74
2021/05/28 11:17:01;;;;;;;6.43;3.83;;;29.80;40.60;;;;;;5114346;28;20374;-74
2021/05/28 11:19:40;;;;;;;6.80;4.18;;;29.40;41.20;;;;;;5113204;28;20105;-73
2021/05/28 11:22:12;;;;;;;13.70;5.00;;;29.10;41.80;;;;;;5114488;28;20454;-73
2021/05/28 11:24:56;;;;;;;12.13;6.47;;;28.80;42.50;;;;;;5112635;28;20373;-73
2021/05/28 11:27:27;;;;;;;13.57;5.47;;;28.50;43.40;;;;;;5113262;28;20054;-73
2021/05/28 11:30:16;;;;;;;12.50;5.18;;;28.20;44.50;;;;;;5086647;28;20031;-74
2021/05/28 11:32:58;;;;;;;9.95;4.10;;;27.90;45.20;;;;;;5111265;28;20023;-75
2021/05/28 11:35:27;;;;;;;12.45;5.85;;;27.60;45.90;;;;;;5111291;28;20027;-75
2021/05/28 11:37:58;;;;;;;11.43;4.88;;;27.40;46.30;;;;;;5111862;28;20027;-74
2021/05/28 11:40:33;;;;;;;11.48;4.35;;;27.20;46.70;;;;;;5111457;28;20031;-75
2021/05/28 11:43:15;;;;;;;8.65;4.20;;;27.00;46.90;;;;;;5112718;28;20428;-73
2021/05/28 11:45:45;;;;;;;13.10;4.53;;;26.80;47.10;;;;;;5084521;28;20522;-76
2021/05/28 11:48:12;;;;;;;11.95;4.65;;;26.70;47.60;;;;;;5113188;28;20026;-73
2021/05/28 11:50:42;;;;;;;8.02;3.83;;;26.60;48.10;;;;;;5112842;28;20099;-73
2021/05/28 11:53:09;;;;;;;8.65;4.50;;;26.50;48.90;;;;;;5111862;28;20027;-73
2021/05/28 11:55:56;;;;;;;7.22;4.53;;;26.30;51.40;;;;;;5112510;28;20023;-73
2021/05/28 11:58:28;;;;;;;10.35;5.00;;;26.10;53.30;;;;;;5111296;28;20023;-73
2021/05/28 12:00:55;;;;;;;7.70;5.03;;;25.90;55.50;;;;;;5084393;28;20062;-74
2021/05/28 12:03:23;;;;;;;13.52;7.15;;;25.70;55.00;;;;;;5112491;28;20024;-74
2021/05/28 12:05:50;;;;;;;18.10;12.45;;;25.60;54.50;;;;;;5111350;28;20020;-74
2021/05/28 12:08:29;;;;;;;11.82;7.90;;;25.40;54.80;;;;;;5111649;28;20115;-74
2021/05/28 12:10:56;;;;;;;12.43;8.00;;;25.40;55.60;;;;;;5112009;28;20035;-74
2021/05/28 12:13:33;;;;;;;16.73;14.02;;;25.40;56.20;;;;;;5112833;28;20036;-74
2021/05/28 12:16:15;;;;;;;16.85;11.50;;;25.40;56.30;;;;;;5111512;28;20106;-74
2021/05/28 12:18:43;;;;;;;16.70;11.45;;;25.50;56.60;;;;;;5110724;28;20572;-74
2021/05/28 12:21:14;;;;;;;12.00;8.70;;;25.60;57.50;;;;;;5111643;28;20469;-74
2021/05/28 12:23:49;;;;;;;14.52;8.73;;;25.90;58.00;;;;;;5111343;28;20461;-74
2021/05/28 12:26:26;;;;;;;16.67;12.15;;;26.30;59.00;;;;;;5111164;28;20019;-74
2021/05/28 12:28:55;;;;;;;17.95;12.02;;;26.60;58.60;;;;;;5112662;28;20103;-74
2021/05/28 12:31:28;;;;;;;9.02;6.82;;;27.00;58.50;;;;;;5112350;28;20089;-74
2021/05/28 12:34:08;;;;;;;15.05;7.30;;;27.30;56.40;;;;;;5112621;28;20428;-75
2021/05/28 12:36:39;;;;;;;9.50;5.28;;;27.50;55.50;;;;;;5110929;28;20028;-75
2021/05/28 12:39:07;;;;;;;11.05;6.13;;;27.80;54.20;;;;;;5111316;28;20035;-75
2021/05/28 12:41:34;;;;;;;10.35;6.60;;;27.90;53.90;;;;;;5112086;28;20073;-74
2021/05/28 12:44:02;;;;;;;15.38;10.00;;;28.00;55.00;;;;;;5111948;28;20095;-75